createdAt,value
2023-05-10T00:02:17.470Z,99.90
2023-05-10T00:07:19.056Z,99.90
2023-05-10T00:12:20.756Z,99.90
2023-05-10T00:17:22.483Z,99.90
2023-05-10T00:22:24.056Z,99.90
2023-05-10T00:27:25.532Z,99.90
2023-05-10T00:32:27.118Z,99.90
2023-05-10T00:37:29.004Z,99.90
2023-05-10T00:42:30.511Z,99.90
2023-05-10T00:47:32.234Z,99.90
2023-05-10T00:52:33.920Z,99.90
2023-05-10T00:57:35.529Z,99.90
2023-05-10T01:02:37.310Z,99.90
2023-05-10T01:07:38.898Z,99.90
2023-05-10T01:12:40.493Z,99.90
2023-05-10T01:17:42.156Z,99.90
2023-05-10T01:22:45.315Z,99.90
2023-05-10T01:27:46.830Z,99.90
2023-05-10T01:32:48.710Z,99.90
2023-05-10T01:37:50.362Z,99.90
2023-05-10T01:42:52.016Z,99.90
2023-05-10T01:47:53.788Z,99.90
2023-05-10T01:52:56.481Z,99.90
2023-05-10T01:57:57.939Z,99.90
2023-05-10T02:02:59.443Z,99.90
2023-05-10T02:08:02.121Z,99.90
2023-05-10T02:13:03.771Z,99.90
2023-05-10T02:18:05.531Z,99.90
2023-05-10T02:23:07.313Z,99.90
2023-05-10T02:28:08.931Z,99.90
2023-05-10T02:33:10.595Z,99.90
2023-05-10T02:38:12.193Z,99.90
2023-05-10T02:43:13.770Z,99.90
2023-05-10T02:48:15.538Z,99.90
2023-05-10T02:53:17.080Z,99.90
2023-05-10T02:58:18.632Z,99.90
2023-05-10T03:03:20.102Z,99.90
2023-05-10T03:08:21.540Z,99.90
2023-05-10T03:13:23.199Z,99.90
2023-05-10T03:18:24.680Z,99.90
2023-05-10T03:23:26.158Z,99.90
2023-05-10T03:28:27.720Z,99.90
2023-05-10T03:33:29.440Z,99.90
2023-05-10T03:38:31.161Z,99.90
2023-05-10T03:43:33.593Z,99.90
2023-05-10T03:48:35.224Z,99.90
2023-05-10T03:53:37.348Z,99.90
2023-05-10T03:58:38.981Z,99.90
2023-05-10T04:03:40.588Z,99.90
2023-05-10T04:08:42.115Z,99.90
2023-05-10T04:13:43.678Z,99.90
2023-05-10T04:18:45.179Z,99.90
2023-05-10T04:23:46.860Z,99.90
2023-05-10T04:28:48.390Z,99.90
2023-05-10T04:33:49.872Z,99.90
2023-05-10T04:38:51.545Z,99.90
2023-05-10T04:43:54.424Z,99.90
2023-05-10T04:48:56.123Z,99.90
2023-05-10T04:54:06.036Z,99.90
2023-05-10T04:59:08.366Z,99.90
2023-05-10T05:04:09.827Z,99.90
2023-05-10T05:09:11.333Z,99.90
2023-05-10T05:14:14.259Z,99.90
2023-05-10T05:19:15.846Z,99.90
2023-05-10T05:24:17.349Z,99.90
2023-05-10T05:29:18.905Z,99.90
2023-05-10T05:34:20.549Z,99.90
2023-05-10T05:39:22.044Z,99.90
2023-05-10T05:44:23.702Z,99.90
2023-05-10T05:49:25.354Z,99.90
2023-05-10T05:54:27.191Z,99.90
2023-05-10T05:59:28.730Z,99.50
2023-05-10T06:04:30.398Z,99.50
2023-05-10T06:09:31.954Z,98.80
2023-05-10T06:14:33.421Z,99.00
2023-05-10T06:19:34.901Z,97.60
2023-05-10T06:24:36.442Z,97.70
2023-05-10T06:29:38.122Z,97.50
2023-05-10T06:34:39.704Z,96.20
2023-05-10T06:39:41.176Z,95.60
2023-05-10T06:44:42.834Z,95.60
2023-05-10T06:49:44.455Z,95.00
2023-05-10T06:54:46.077Z,95.10
2023-05-10T06:59:47.664Z,94.70
2023-05-10T07:04:49.542Z,94.40
2023-05-10T07:09:51.645Z,94.10
2023-05-10T07:14:54.401Z,93.70
2023-05-10T07:19:57.417Z,93.60
2023-05-10T07:25:00.574Z,93.40
2023-05-10T07:30:04.558Z,93.70
2023-05-10T07:35:06.334Z,93.10
2023-05-10T07:40:07.876Z,92.80
2023-05-10T07:45:09.339Z,92.20
2023-05-10T07:50:12.759Z,92.30
2023-05-10T07:55:34.394Z,92.90
2023-05-10T08:00:41.490Z,93.00
2023-05-10T08:05:46.546Z,93.20
2023-05-10T08:10:50.810Z,93.10
2023-05-10T08:15:52.285Z,93.10
2023-05-10T08:20:53.806Z,92.50
2023-05-10T08:25:55.439Z,93.40
2023-05-10T08:30:56.977Z,92.70
2023-05-10T08:35:58.549Z,93.00
2023-05-10T08:41:00.193Z,93.10
2023-05-10T08:46:02.153Z,93.10
2023-05-10T08:51:03.625Z,92.40
2023-05-10T08:56:05.662Z,93.30
2023-05-10T09:01:07.293Z,93.10
2023-05-10T09:06:27.455Z,92.20
2023-05-10T09:11:59.518Z,92.60
2023-05-10T09:17:01.112Z,92.60
2023-05-10T09:22:02.641Z,92.80
2023-05-10T09:27:04.172Z,92.60
2023-05-10T09:32:05.839Z,92.80
2023-05-10T09:37:07.586Z,92.60
2023-05-10T09:42:09.315Z,93.30
2023-05-10T09:47:10.763Z,93.10
2023-05-10T09:52:12.544Z,92.20
2023-05-10T09:57:49.665Z,92.60
2023-05-10T10:03:30.356Z,93.20
2023-05-10T10:08:50.263Z,92.60
2023-05-10T10:14:10.592Z,92.50
2023-05-10T10:19:48.136Z,91.50
2023-05-10T10:25:08.333Z,91.60
2023-05-10T10:30:28.462Z,92.30
2023-05-10T10:35:57.403Z,91.70
2023-05-10T10:41:17.482Z,92.20
2023-05-10T10:46:37.543Z,92.30
2023-05-10T10:51:57.807Z,92.00
2023-05-10T10:57:17.663Z,92.40
2023-05-10T11:02:37.897Z,92.50
2023-05-10T11:07:39.762Z,91.50
2023-05-10T11:12:41.461Z,91.80
2023-05-10T11:17:42.946Z,92.00
2023-05-10T11:22:44.474Z,92.00
2023-05-10T11:27:46.019Z,92.40
2023-05-10T11:32:47.549Z,92.00
2023-05-10T11:37:49.083Z,91.70
2023-05-10T11:42:51.543Z,92.40
2023-05-10T11:47:53.177Z,91.90
2023-05-10T11:52:54.728Z,92.10
2023-05-10T11:57:56.363Z,91.70
2023-05-10T12:02:57.944Z,91.20
2023-05-10T12:08:18.643Z,90.50
2023-05-10T12:13:21.540Z,90.90
2023-05-10T12:18:25.558Z,91.00
2023-05-10T12:23:27.256Z,90.50
2023-05-10T12:28:28.880Z,91.10
2023-05-10T12:33:30.594Z,90.90
2023-05-10T12:38:32.153Z,90.40
2023-05-10T12:43:33.589Z,91.00
2023-05-10T12:48:35.894Z,90.90
2023-05-10T12:53:42.737Z,90.50
2023-05-10T12:59:04.401Z,90.30
2023-05-10T13:04:08.349Z,90.40
2023-05-10T13:09:36.322Z,90.10
2023-05-10T13:14:56.273Z,90.00
2023-05-10T13:20:16.686Z,90.50
2023-05-10T13:25:19.553Z,90.30
2023-05-10T13:30:39.632Z,89.20
2023-05-10T13:35:59.957Z,89.40
2023-05-10T13:41:20.089Z,89.60
2023-05-10T13:46:40.472Z,90.30
2023-05-10T13:52:00.562Z,89.30
2023-05-10T13:57:20.615Z,89.70
2023-05-10T14:02:40.798Z,89.30
2023-05-10T14:08:03.375Z,89.00
2023-05-10T14:13:23.385Z,89.50
2023-05-10T14:18:43.697Z,89.50
2023-05-10T14:23:45.555Z,89.80
2023-05-10T14:28:47.234Z,87.90
2023-05-10T14:33:48.843Z,88.70
2023-05-10T14:38:56.923Z,88.60
2023-05-10T14:44:01.651Z,87.20
2023-05-10T14:49:03.513Z,89.20
2023-05-10T14:54:05.334Z,89.90
2023-05-10T14:59:07.023Z,90.10
2023-05-10T15:04:09.297Z,88.50
2023-05-10T15:09:11.399Z,88.50
2023-05-10T15:14:12.997Z,88.20
2023-05-10T15:19:15.761Z,89.80
2023-05-10T15:24:17.642Z,89.30
2023-05-10T15:29:19.142Z,87.70
2023-05-10T15:34:20.860Z,86.60
2023-05-10T15:39:22.539Z,86.70
2023-05-10T15:44:24.349Z,87.50
2023-05-10T15:49:27.343Z,87.30
2023-05-10T15:54:29.191Z,87.50
2023-05-10T15:59:30.772Z,86.20
2023-05-10T16:04:32.274Z,87.80
2023-05-10T16:09:33.910Z,88.30
2023-05-10T16:14:35.486Z,88.90
2023-05-10T16:19:37.199Z,89.30
2023-05-10T16:24:38.887Z,89.60
2023-05-10T16:29:40.587Z,89.20
2023-05-10T16:34:42.154Z,89.20
2023-05-10T16:39:44.096Z,87.40
2023-05-10T16:44:45.813Z,87.50
2023-05-10T16:49:47.466Z,89.40
2023-05-10T16:54:49.155Z,89.80
2023-05-10T16:59:50.807Z,89.00
2023-05-10T17:04:52.495Z,90.20
2023-05-10T17:09:54.018Z,90.20
2023-05-10T17:14:56.047Z,90.30
2023-05-10T17:19:58.410Z,90.00
2023-05-10T17:25:01.466Z,90.10
2023-05-10T17:30:04.296Z,90.60
2023-05-10T17:35:06.049Z,91.00
2023-05-10T17:40:07.656Z,91.40
2023-05-10T17:45:09.242Z,91.80
2023-05-10T17:50:10.829Z,92.10
2023-05-10T17:55:12.469Z,92.70
2023-05-10T18:00:14.062Z,92.80
2023-05-10T18:05:15.957Z,93.30
2023-05-10T18:10:17.848Z,93.60
2023-05-10T18:15:19.625Z,94.00
2023-05-10T18:20:21.228Z,94.30
2023-05-10T18:25:22.993Z,94.50
2023-05-10T18:30:24.548Z,94.60
2023-05-10T18:35:26.757Z,94.90
2023-05-10T18:40:28.337Z,95.10
2023-05-10T18:45:29.998Z,95.40
2023-05-10T18:50:31.682Z,95.70
2023-05-10T18:55:33.351Z,95.90
2023-05-10T19:00:34.945Z,96.20
2023-05-10T19:05:36.580Z,96.40
2023-05-10T19:10:38.260Z,96.70
2023-05-10T19:15:40.078Z,97.00
2023-05-10T19:20:42.517Z,97.30
2023-05-10T19:25:44.816Z,97.70
2023-05-10T19:30:46.582Z,98.00
2023-05-10T19:35:48.215Z,98.20
2023-05-10T19:40:49.761Z,98.80
2023-05-10T19:45:54.271Z,99.00
2023-05-10T19:50:56.241Z,99.40
2023-05-10T19:55:58.327Z,99.80
2023-05-10T20:00:59.924Z,99.90
2023-05-10T20:06:01.766Z,99.90
2023-05-10T20:11:03.274Z,99.90
2023-05-10T20:16:05.014Z,99.90
2023-05-10T20:21:24.962Z,99.90
2023-05-10T20:26:47.048Z,99.90
2023-05-10T20:32:09.616Z,99.90
2023-05-10T20:37:29.922Z,99.90
2023-05-10T20:42:50.211Z,99.90
2023-05-10T20:48:16.452Z,99.90
2023-05-10T20:53:53.444Z,99.90
2023-05-10T20:58:58.300Z,99.90
2023-05-10T21:04:00.458Z,99.90
2023-05-10T21:09:02.809Z,99.90
2023-05-10T21:14:04.348Z,99.90
2023-05-10T21:19:06.886Z,99.90
2023-05-10T21:24:08.602Z,99.90
2023-05-10T21:29:11.432Z,99.90
2023-05-10T21:34:13.138Z,99.90
2023-05-10T21:39:14.802Z,99.90
2023-05-10T21:44:16.380Z,99.90
2023-05-10T21:49:18.092Z,99.90
2023-05-10T21:54:19.863Z,99.90
2023-05-10T21:59:21.672Z,99.90
2023-05-10T22:04:23.207Z,99.90
2023-05-10T22:09:24.732Z,99.90
2023-05-10T22:14:26.631Z,99.90
2023-05-10T22:19:28.110Z,99.60
2023-05-10T22:24:29.734Z,99.60
2023-05-10T22:29:31.310Z,99.50
2023-05-10T22:34:32.912Z,99.40
2023-05-10T22:39:34.481Z,99.40
2023-05-10T22:44:37.133Z,99.60
2023-05-10T22:49:38.618Z,99.70
2023-05-10T22:54:40.185Z,99.70
2023-05-10T22:59:41.733Z,99.90
2023-05-10T23:04:43.217Z,99.90
2023-05-10T23:09:44.870Z,99.90
2023-05-10T23:14:46.673Z,99.90
2023-05-10T23:19:48.213Z,99.90
2023-05-10T23:24:49.785Z,99.90
2023-05-10T23:29:51.262Z,99.90
2023-05-10T23:34:53.308Z,99.90
2023-05-10T23:39:54.918Z,99.90
2023-05-10T23:44:56.469Z,99.90
2023-05-10T23:49:59.042Z,99.90
2023-05-10T23:55:00.563Z,99.90
